sensor_id;sensor_type;location;lat;lon;timestamp;temperature;humidity
3925;DHT22;1977;52.274;10.518;2024-02-04T00:02:16;10.20;99.90
3925;DHT22;1977;52.274;10.518;2024-02-04T00:04:42;10.20;99.90
3925;DHT22;1977;52.274;10.518;2024-02-04T00:07:09;10.20;99.90
3925;DHT22;1977;52.274;10.518;2024-02-04T00:09:36;10.10;99.90
3925;DHT22;1977;52.274;10.518;2024-02-04T00:12:03;10.10;99.90
3925;DHT22;1977;52.274;10.518;2024-02-04T00:14:31;10.10;99.90
3925;DHT22;1977;52.274;10.518;2024-02-04T00:16:59;10.10;99.90
3925;DHT22;1977;52.274;10.518;2024-02-04T00:19:26;10.10;99.90
3925;DHT22;1977;52.274;10.518;2024-02-04T00:21:53;10.00;99.90
3925;DHT22;1977;52.274;10.518;2024-02-04T00:24:20;10.00;99.90
3925;DHT22;1977;52.274;10.518;2024-02-04T00:26:47;10.00;99.90
3925;DHT22;1977;52.274;10.518;2024-02-04T00:29:13;9.90;99.90
3925;DHT22;1977;52.274;10.518;2024-02-04T00:31:39;9.90;99.90
3925;DHT22;1977;52.274;10.518;2024-02-04T00:34:07;9.90;99.90
3925;DHT22;1977;52.274;10.518;2024-02-04T00:36:34;9.90;99.90
3925;DHT22;1977;52.274;10.518;2024-02-04T00:39:01;9.80;99.90
3925;DHT22;1977;52.274;10.518;2024-02-04T00:41:28;9.90;99.90
3925;DHT22;1977;52.274;10.518;2024-02-04T00:43:55;9.90;99.90
3925;DHT22;1977;52.274;10.518;2024-02-04T00:46:22;9.80;99.90
3925;DHT22;1977;52.274;10.518;2024-02-04T00:48:49;9.90;99.90
3925;DHT22;1977;52.274;10.518;2024-02-04T00:51:17;9.80;99.90
3925;DHT22;1977;52.274;10.518;2024-02-04T00:53:45;9.80;99.90
3925;DHT22;1977;52.274;10.518;2024-02-04T00:56:12;9.80;99.90
3925;DHT22;1977;52.274;10.518;2024-02-04T00:58:39;9.80;99.90
3925;DHT22;1977;52.274;10.518;2024-02-04T01:01:05;9.80;99.90
3925;DHT22;1977;52.274;10.518;2024-02-04T01:03:32;9.80;99.90
3925;DHT22;1977;52.274;10.518;2024-02-04T01:05:59;9.70;99.90
3925;DHT22;1977;52.274;10.518;2024-02-04T01:08:27;9.70;99.90
3925;DHT22;1977;52.274;10.518;2024-02-04T01:10:54;9.60;99.90
3925;DHT22;1977;52.274;10.518;2024-02-04T01:13:20;9.60;99.90
3925;DHT22;1977;52.274;10.518;2024-02-04T01:15:47;9.60;99.90
3925;DHT22;1977;52.274;10.518;2024-02-04T01:18:14;9.60;99.90
3925;DHT22;1977;52.274;10.518;2024-02-04T01:20:41;9.60;99.90
3925;DHT22;1977;52.274;10.518;2024-02-04T01:23:08;9.60;99.90
3925;DHT22;1977;52.274;10.518;2024-02-04T01:25:36;9.70;99.90
3925;DHT22;1977;52.274;10.518;2024-02-04T01:28:03;9.60;99.90
3925;DHT22;1977;52.274;10.518;2024-02-04T01:30:30;9.60;99.90
3925;DHT22;1977;52.274;10.518;2024-02-04T01:32:57;9.60;99.90
3925;DHT22;1977;52.274;10.518;2024-02-04T01:35:23;9.60;99.90
3925;DHT22;1977;52.274;10.518;2024-02-04T01:37:50;9.60;99.90
3925;DHT22;1977;52.274;10.518;2024-02-04T01:40:17;9.60;99.90
3925;DHT22;1977;52.274;10.518;2024-02-04T01:42:45;9.60;99.90
3925;DHT22;1977;52.274;10.518;2024-02-04T01:45:12;9.50;99.90
3925;DHT22;1977;52.274;10.518;2024-02-04T01:47:39;9.50;99.90
3925;DHT22;1977;52.274;10.518;2024-02-04T01:50:06;9.50;99.90
3925;DHT22;1977;52.274;10.518;2024-02-04T01:52:36;9.60;99.90
3925;DHT22;1977;52.274;10.518;2024-02-04T01:55:05;9.50;99.90
3925;DHT22;1977;52.274;10.518;2024-02-04T01:57:32;9.60;99.90
3925;DHT22;1977;52.274;10.518;2024-02-04T02:00:03;9.50;99.90
3925;DHT22;1977;52.274;10.518;2024-02-04T02:02:31;9.50;99.90
3925;DHT22;1977;52.274;10.518;2024-02-04T02:04:59;9.50;99.90
3925;DHT22;1977;52.274;10.518;2024-02-04T02:07:26;9.60;99.90
3925;DHT22;1977;52.274;10.518;2024-02-04T02:09:53;9.50;99.90
3925;DHT22;1977;52.274;10.518;2024-02-04T02:12:24;9.50;99.90
3925;DHT22;1977;52.274;10.518;2024-02-04T02:14:56;9.40;99.90
3925;DHT22;1977;52.274;10.518;2024-02-04T02:17:33;9.40;99.90
3925;DHT22;1977;52.274;10.518;2024-02-04T02:20:05;9.40;99.90
3925;DHT22;1977;52.274;10.518;2024-02-04T02:22:44;9.50;99.90
3925;DHT22;1977;52.274;10.518;2024-02-04T02:25:14;9.50;99.90
3925;DHT22;1977;52.274;10.518;2024-02-04T02:27:46;9.50;99.90
3925;DHT22;1977;52.274;10.518;2024-02-04T02:30:14;9.50;99.90
3925;DHT22;1977;52.274;10.518;2024-02-04T02:32:41;9.50;99.90
3925;DHT22;1977;52.274;10.518;2024-02-04T02:35:08;9.60;99.90
3925;DHT22;1977;52.274;10.518;2024-02-04T02:37:47;9.60;99.90
3925;DHT22;1977;52.274;10.518;2024-02-04T02:40:22;9.60;99.90
3925;DHT22;1977;52.274;10.518;2024-02-04T02:42:52;9.70;99.90
3925;DHT22;1977;52.274;10.518;2024-02-04T02:45:20;9.70;99.90
3925;DHT22;1977;52.274;10.518;2024-02-04T02:47:47;9.70;99.90
3925;DHT22;1977;52.274;10.518;2024-02-04T02:50:14;9.70;99.90
3925;DHT22;1977;52.274;10.518;2024-02-04T02:52:41;9.70;99.90
3925;DHT22;1977;52.274;10.518;2024-02-04T02:55:08;9.70;99.90
3925;DHT22;1977;52.274;10.518;2024-02-04T02:57:36;9.80;99.90
3925;DHT22;1977;52.274;10.518;2024-02-04T03:00:03;9.80;99.90
3925;DHT22;1977;52.274;10.518;2024-02-04T03:02:31;9.80;99.90
3925;DHT22;1977;52.274;10.518;2024-02-04T03:04:58;9.80;99.90
3925;DHT22;1977;52.274;10.518;2024-02-04T03:07:25;9.80;99.90
3925;DHT22;1977;52.274;10.518;2024-02-04T03:09:52;9.80;99.90
3925;DHT22;1977;52.274;10.518;2024-02-04T03:12:19;9.80;99.90
3925;DHT22;1977;52.274;10.518;2024-02-04T03:14:47;9.80;99.90
3925;DHT22;1977;52.274;10.518;2024-02-04T03:17:14;9.90;99.90
3925;DHT22;1977;52.274;10.518;2024-02-04T03:19:46;9.90;99.90
3925;DHT22;1977;52.274;10.518;2024-02-04T03:22:13;9.90;99.90
3925;DHT22;1977;52.274;10.518;2024-02-04T03:24:39;9.90;99.90
3925;DHT22;1977;52.274;10.518;2024-02-04T03:27:06;10.00;99.90
3925;DHT22;1977;52.274;10.518;2024-02-04T03:29:33;10.00;99.90
3925;DHT22;1977;52.274;10.518;2024-02-04T03:32:01;10.00;99.90
3925;DHT22;1977;52.274;10.518;2024-02-04T03:34:28;10.00;99.90
3925;DHT22;1977;52.274;10.518;2024-02-04T03:36:55;10.00;99.90
3925;DHT22;1977;52.274;10.518;2024-02-04T03:39:22;10.00;99.90
3925;DHT22;1977;52.274;10.518;2024-02-04T03:41:48;10.10;99.90
3925;DHT22;1977;52.274;10.518;2024-02-04T03:44:15;10.00;99.90
3925;DHT22;1977;52.274;10.518;2024-02-04T03:46:42;9.90;99.90
3925;DHT22;1977;52.274;10.518;2024-02-04T03:49:10;9.90;99.90
3925;DHT22;1977;52.274;10.518;2024-02-04T03:51:37;9.90;99.90
3925;DHT22;1977;52.274;10.518;2024-02-04T03:54:03;9.90;99.90
3925;DHT22;1977;52.274;10.518;2024-02-04T03:56:30;9.90;99.90
3925;DHT22;1977;52.274;10.518;2024-02-04T03:58:57;9.90;99.90
3925;DHT22;1977;52.274;10.518;2024-02-04T04:01:24;9.90;99.90
3925;DHT22;1977;52.274;10.518;2024-02-04T04:03:50;9.90;99.90
3925;DHT22;1977;52.274;10.518;2024-02-04T04:06:19;9.90;99.90
3925;DHT22;1977;52.274;10.518;2024-02-04T04:08:45;10.00;99.90
3925;DHT22;1977;52.274;10.518;2024-02-04T04:11:12;10.00;99.90
3925;DHT22;1977;52.274;10.518;2024-02-04T04:13:39;10.00;99.90
3925;DHT22;1977;52.274;10.518;2024-02-04T04:16:06;10.00;99.90
3925;DHT22;1977;52.274;10.518;2024-02-04T04:18:33;10.00;99.90
3925;DHT22;1977;52.274;10.518;2024-02-04T04:21:00;10.00;99.90
3925;DHT22;1977;52.274;10.518;2024-02-04T04:23:28;10.00;99.90
3925;DHT22;1977;52.274;10.518;2024-02-04T04:25:54;10.00;99.90
3925;DHT22;1977;52.274;10.518;2024-02-04T04:28:21;10.00;99.90
3925;DHT22;1977;52.274;10.518;2024-02-04T04:30:48;10.00;99.90
3925;DHT22;1977;52.274;10.518;2024-02-04T04:33:15;10.00;99.90
3925;DHT22;1977;52.274;10.518;2024-02-04T04:35:41;10.00;99.90
3925;DHT22;1977;52.274;10.518;2024-02-04T04:38:08;10.00;99.90
3925;DHT22;1977;52.274;10.518;2024-02-04T04:40:36;10.00;99.90
3925;DHT22;1977;52.274;10.518;2024-02-04T04:43:03;10.00;99.90
3925;DHT22;1977;52.274;10.518;2024-02-04T04:45:30;10.00;99.90
3925;DHT22;1977;52.274;10.518;2024-02-04T04:47:57;10.00;99.90
3925;DHT22;1977;52.274;10.518;2024-02-04T04:50:23;10.00;99.90
3925;DHT22;1977;52.274;10.518;2024-02-04T04:52:50;10.00;99.90
3925;DHT22;1977;52.274;10.518;2024-02-04T04:55:18;10.00;99.90
3925;DHT22;1977;52.274;10.518;2024-02-04T04:57:46;10.00;99.90
3925;DHT22;1977;52.274;10.518;2024-02-04T05:00:14;10.10;99.90
3925;DHT22;1977;52.274;10.518;2024-02-04T05:02:42;10.10;99.90
3925;DHT22;1977;52.274;10.518;2024-02-04T05:05:10;10.10;99.90
3925;DHT22;1977;52.274;10.518;2024-02-04T05:07:37;10.10;99.90
3925;DHT22;1977;52.274;10.518;2024-02-04T05:10:04;10.10;99.90
3925;DHT22;1977;52.274;10.518;2024-02-04T05:12:33;10.10;99.90
3925;DHT22;1977;52.274;10.518;2024-02-04T05:15:01;10.00;99.90
3925;DHT22;1977;52.274;10.518;2024-02-04T05:17:28;10.00;99.90
3925;DHT22;1977;52.274;10.518;2024-02-04T05:19:54;10.00;99.90
3925;DHT22;1977;52.274;10.518;2024-02-04T05:22:21;10.00;99.90
3925;DHT22;1977;52.274;10.518;2024-02-04T05:24:48;10.00;99.90
3925;DHT22;1977;52.274;10.518;2024-02-04T05:27:15;10.00;99.90
3925;DHT22;1977;52.274;10.518;2024-02-04T05:29:42;10.00;99.90
3925;DHT22;1977;52.274;10.518;2024-02-04T05:32:10;10.00;99.90
3925;DHT22;1977;52.274;10.518;2024-02-04T05:34:37;10.00;99.90
3925;DHT22;1977;52.274;10.518;2024-02-04T05:37:04;10.00;99.90
3925;DHT22;1977;52.274;10.518;2024-02-04T05:39:30;9.90;99.90
3925;DHT22;1977;52.274;10.518;2024-02-04T05:41:57;9.90;99.90
3925;DHT22;1977;52.274;10.518;2024-02-04T05:44:24;9.90;99.90
3925;DHT22;1977;52.274;10.518;2024-02-04T05:46:51;9.90;99.90
3925;DHT22;1977;52.274;10.518;2024-02-04T05:49:19;9.90;99.90
3925;DHT22;1977;52.274;10.518;2024-02-04T05:51:45;9.80;99.90
3925;DHT22;1977;52.274;10.518;2024-02-04T05:54:12;9.80;99.90
3925;DHT22;1977;52.274;10.518;2024-02-04T05:56:39;9.70;99.90
3925;DHT22;1977;52.274;10.518;2024-02-04T05:59:06;9.70;99.90
3925;DHT22;1977;52.274;10.518;2024-02-04T06:01:33;9.70;99.90
3925;DHT22;1977;52.274;10.518;2024-02-04T06:03:59;9.70;99.90
3925;DHT22;1977;52.274;10.518;2024-02-04T06:06:27;9.70;99.90
3925;DHT22;1977;52.274;10.518;2024-02-04T06:08:54;9.70;99.90
3925;DHT22;1977;52.274;10.518;2024-02-04T06:11:21;9.70;99.90
3925;DHT22;1977;52.274;10.518;2024-02-04T06:13:48;9.70;99.90
3925;DHT22;1977;52.274;10.518;2024-02-04T06:16:15;9.80;99.90
3925;DHT22;1977;52.274;10.518;2024-02-04T06:18:42;9.70;99.90
3925;DHT22;1977;52.274;10.518;2024-02-04T06:21:09;9.70;99.90
3925;DHT22;1977;52.274;10.518;2024-02-04T06:23:38;9.70;99.90
3925;DHT22;1977;52.274;10.518;2024-02-04T06:26:05;9.70;99.90
3925;DHT22;1977;52.274;10.518;2024-02-04T06:28:32;9.80;99.90
3925;DHT22;1977;52.274;10.518;2024-02-04T06:30:58;9.80;99.90
3925;DHT22;1977;52.274;10.518;2024-02-04T06:33:25;9.80;99.90
3925;DHT22;1977;52.274;10.518;2024-02-04T06:35:52;9.80;99.90
3925;DHT22;1977;52.274;10.518;2024-02-04T06:38:19;9.80;99.90
3925;DHT22;1977;52.274;10.518;2024-02-04T06:40:47;9.80;99.90
3925;DHT22;1977;52.274;10.518;2024-02-04T06:43:13;9.80;99.90
3925;DHT22;1977;52.274;10.518;2024-02-04T06:45:40;9.80;99.90
3925;DHT22;1977;52.274;10.518;2024-02-04T06:48:07;9.80;99.90
3925;DHT22;1977;52.274;10.518;2024-02-04T06:50:35;9.80;99.90
3925;DHT22;1977;52.274;10.518;2024-02-04T06:53:02;9.70;99.90
3925;DHT22;1977;52.274;10.518;2024-02-04T06:55:29;9.70;99.90
3925;DHT22;1977;52.274;10.518;2024-02-04T06:57:57;9.80;99.90
3925;DHT22;1977;52.274;10.518;2024-02-04T07:00:24;9.80;99.90
3925;DHT22;1977;52.274;10.518;2024-02-04T07:02:50;9.80;99.90
3925;DHT22;1977;52.274;10.518;2024-02-04T07:05:17;9.80;99.90
3925;DHT22;1977;52.274;10.518;2024-02-04T07:07:44;9.80;99.90
3925;DHT22;1977;52.274;10.518;2024-02-04T07:10:11;9.70;99.90
3925;DHT22;1977;52.274;10.518;2024-02-04T07:12:37;9.80;99.90
3925;DHT22;1977;52.274;10.518;2024-02-04T07:15:06;9.80;99.90
3925;DHT22;1977;52.274;10.518;2024-02-04T07:17:33;9.70;99.90
3925;DHT22;1977;52.274;10.518;2024-02-04T07:20:00;9.70;99.90
3925;DHT22;1977;52.274;10.518;2024-02-04T07:22:28;9.80;99.90
3925;DHT22;1977;52.274;10.518;2024-02-04T07:24:55;9.80;99.90
3925;DHT22;1977;52.274;10.518;2024-02-04T07:27:21;9.70;99.90
3925;DHT22;1977;52.274;10.518;2024-02-04T07:29:48;9.70;99.90
3925;DHT22;1977;52.274;10.518;2024-02-04T07:32:16;9.70;99.90
3925;DHT22;1977;52.274;10.518;2024-02-04T07:34:43;9.70;99.90
3925;DHT22;1977;52.274;10.518;2024-02-04T07:37:10;9.70;99.90
3925;DHT22;1977;52.274;10.518;2024-02-04T07:39:36;9.80;99.90
3925;DHT22;1977;52.274;10.518;2024-02-04T07:42:04;9.70;99.90
3925;DHT22;1977;52.274;10.518;2024-02-04T07:44:30;9.70;99.90
3925;DHT22;1977;52.274;10.518;2024-02-04T07:46:57;9.70;99.90
3925;DHT22;1977;52.274;10.518;2024-02-04T07:49:25;9.70;99.90
3925;DHT22;1977;52.274;10.518;2024-02-04T07:51:52;9.80;99.90
3925;DHT22;1977;52.274;10.518;2024-02-04T07:54:19;9.80;99.90
3925;DHT22;1977;52.274;10.518;2024-02-04T07:56:45;9.80;99.90
3925;DHT22;1977;52.274;10.518;2024-02-04T07:59:12;9.90;99.90
3925;DHT22;1977;52.274;10.518;2024-02-04T08:01:39;9.90;99.90
3925;DHT22;1977;52.274;10.518;2024-02-04T08:04:06;9.90;99.90
3925;DHT22;1977;52.274;10.518;2024-02-04T08:06:37;9.90;99.90
3925;DHT22;1977;52.274;10.518;2024-02-04T08:09:04;10.00;99.90
3925;DHT22;1977;52.274;10.518;2024-02-04T08:11:31;10.00;99.90
3925;DHT22;1977;52.274;10.518;2024-02-04T08:13:58;10.00;99.90
3925;DHT22;1977;52.274;10.518;2024-02-04T08:16:25;10.10;99.90
3925;DHT22;1977;52.274;10.518;2024-02-04T08:18:52;10.10;99.90
3925;DHT22;1977;52.274;10.518;2024-02-04T08:21:19;10.10;99.90
3925;DHT22;1977;52.274;10.518;2024-02-04T08:23:47;10.10;99.90
3925;DHT22;1977;52.274;10.518;2024-02-04T08:26:14;10.00;99.90
3925;DHT22;1977;52.274;10.518;2024-02-04T08:28:41;10.00;99.90
3925;DHT22;1977;52.274;10.518;2024-02-04T08:31:07;10.00;99.90
3925;DHT22;1977;52.274;10.518;2024-02-04T08:33:34;10.10;99.90
3925;DHT22;1977;52.274;10.518;2024-02-04T08:36:01;10.10;99.90
3925;DHT22;1977;52.274;10.518;2024-02-04T08:38:28;10.10;99.90
3925;DHT22;1977;52.274;10.518;2024-02-04T08:40:56;10.10;99.90
3925;DHT22;1977;52.274;10.518;2024-02-04T08:43:22;10.10;99.90
3925;DHT22;1977;52.274;10.518;2024-02-04T08:45:49;10.10;99.90
3925;DHT22;1977;52.274;10.518;2024-02-04T08:48:16;10.10;99.90
3925;DHT22;1977;52.274;10.518;2024-02-04T08:50:43;10.10;99.90
3925;DHT22;1977;52.274;10.518;2024-02-04T08:53:09;10.10;99.90
3925;DHT22;1977;52.274;10.518;2024-02-04T08:55:36;10.10;99.90
3925;DHT22;1977;52.274;10.518;2024-02-04T08:58:04;10.20;99.90
3925;DHT22;1977;52.274;10.518;2024-02-04T09:00:31;10.20;99.90
3925;DHT22;1977;52.274;10.518;2024-02-04T09:02:58;10.20;99.90
3925;DHT22;1977;52.274;10.518;2024-02-04T09:05:24;10.20;99.90
3925;DHT22;1977;52.274;10.518;2024-02-04T09:07:51;10.20;99.90
3925;DHT22;1977;52.274;10.518;2024-02-04T09:10:20;10.20;99.90
3925;DHT22;1977;52.274;10.518;2024-02-04T09:12:47;10.30;99.90
3925;DHT22;1977;52.274;10.518;2024-02-04T09:15:15;10.10;99.90
3925;DHT22;1977;52.274;10.518;2024-02-04T09:17:42;10.10;99.90
3925;DHT22;1977;52.274;10.518;2024-02-04T09:20:10;10.20;99.90
3925;DHT22;1977;52.274;10.518;2024-02-04T09:22:37;10.10;99.90
3925;DHT22;1977;52.274;10.518;2024-02-04T09:25:05;10.10;99.90
3925;DHT22;1977;52.274;10.518;2024-02-04T09:27:32;10.10;99.90
3925;DHT22;1977;52.274;10.518;2024-02-04T09:29:59;10.20;99.90
3925;DHT22;1977;52.274;10.518;2024-02-04T09:32:27;10.20;99.90
3925;DHT22;1977;52.274;10.518;2024-02-04T09:34:54;10.30;99.90
3925;DHT22;1977;52.274;10.518;2024-02-04T09:37:20;10.30;99.90
3925;DHT22;1977;52.274;10.518;2024-02-04T09:39:47;10.40;99.90
3925;DHT22;1977;52.274;10.518;2024-02-04T09:42:19;10.30;99.90
3925;DHT22;1977;52.274;10.518;2024-02-04T09:44:46;10.30;99.90
3925;DHT22;1977;52.274;10.518;2024-02-04T09:47:13;10.20;99.90
3925;DHT22;1977;52.274;10.518;2024-02-04T09:49:42;10.20;99.90
3925;DHT22;1977;52.274;10.518;2024-02-04T09:52:09;10.20;99.90
3925;DHT22;1977;52.274;10.518;2024-02-04T09:54:41;10.30;99.90
3925;DHT22;1977;52.274;10.518;2024-02-04T09:57:09;10.30;99.90
3925;DHT22;1977;52.274;10.518;2024-02-04T09:59:36;10.30;99.90
3925;DHT22;1977;52.274;10.518;2024-02-04T10:02:04;10.30;99.90
3925;DHT22;1977;52.274;10.518;2024-02-04T10:04:31;10.40;99.90
3925;DHT22;1977;52.274;10.518;2024-02-04T10:06:59;10.50;99.90
3925;DHT22;1977;52.274;10.518;2024-02-04T10:09:26;10.50;99.90
3925;DHT22;1977;52.274;10.518;2024-02-04T10:11:53;10.50;99.90
3925;DHT22;1977;52.274;10.518;2024-02-04T10:14:19;10.50;99.90
3925;DHT22;1977;52.274;10.518;2024-02-04T10:16:46;10.50;99.90
3925;DHT22;1977;52.274;10.518;2024-02-04T10:19:13;10.50;99.90
3925;DHT22;1977;52.274;10.518;2024-02-04T10:21:40;10.40;99.90
3925;DHT22;1977;52.274;10.518;2024-02-04T10:24:08;10.40;99.90
3925;DHT22;1977;52.274;10.518;2024-02-04T10:26:35;10.40;99.90
3925;DHT22;1977;52.274;10.518;2024-02-04T10:29:03;10.40;99.90
3925;DHT22;1977;52.274;10.518;2024-02-04T10:31:30;10.50;99.90
3925;DHT22;1977;52.274;10.518;2024-02-04T10:33:56;10.50;99.90
3925;DHT22;1977;52.274;10.518;2024-02-04T10:36:23;10.50;99.90
3925;DHT22;1977;52.274;10.518;2024-02-04T10:38:50;10.50;99.90
3925;DHT22;1977;52.274;10.518;2024-02-04T10:41:18;10.50;99.90
3925;DHT22;1977;52.274;10.518;2024-02-04T10:43:45;10.50;99.90
3925;DHT22;1977;52.274;10.518;2024-02-04T10:46:13;10.50;99.90
3925;DHT22;1977;52.274;10.518;2024-02-04T10:48:48;10.50;99.90
3925;DHT22;1977;52.274;10.518;2024-02-04T10:51:18;10.50;99.90
3925;DHT22;1977;52.274;10.518;2024-02-04T10:53:50;10.50;99.90
3925;DHT22;1977;52.274;10.518;2024-02-04T10:56:22;10.50;99.90
3925;DHT22;1977;52.274;10.518;2024-02-04T10:58:52;10.50;99.90
3925;DHT22;1977;52.274;10.518;2024-02-04T11:01:19;10.50;99.90
3925;DHT22;1977;52.274;10.518;2024-02-04T11:03:46;10.50;99.90
3925;DHT22;1977;52.274;10.518;2024-02-04T11:06:13;10.50;99.90
3925;DHT22;1977;52.274;10.518;2024-02-04T11:08:41;10.60;99.90
3925;DHT22;1977;52.274;10.518;2024-02-04T11:11:09;10.70;99.90
3925;DHT22;1977;52.274;10.518;2024-02-04T11:13:38;10.70;99.90
3925;DHT22;1977;52.274;10.518;2024-02-04T11:16:09;10.70;99.90
3925;DHT22;1977;52.274;10.518;2024-02-04T11:19:04;10.70;99.90
3925;DHT22;1977;52.274;10.518;2024-02-04T11:22:00;10.70;99.90
3925;DHT22;1977;52.274;10.518;2024-02-04T11:27:28;10.70;99.90
3925;DHT22;1977;52.274;10.518;2024-02-04T11:29:56;10.70;99.90
3925;DHT22;1977;52.274;10.518;2024-02-04T11:32:24;10.70;99.90
3925;DHT22;1977;52.274;10.518;2024-02-04T11:34:50;10.80;99.90
3925;DHT22;1977;52.274;10.518;2024-02-04T11:37:18;10.70;99.90
3925;DHT22;1977;52.274;10.518;2024-02-04T11:39:49;10.70;99.90
3925;DHT22;1977;52.274;10.518;2024-02-04T11:42:16;10.70;99.90
3925;DHT22;1977;52.274;10.518;2024-02-04T11:44:44;10.70;99.90
3925;DHT22;1977;52.274;10.518;2024-02-04T11:47:22;10.70;99.90
3925;DHT22;1977;52.274;10.518;2024-02-04T11:49:54;10.70;99.90
3925;DHT22;1977;52.274;10.518;2024-02-04T11:52:20;10.70;99.90
3925;DHT22;1977;52.274;10.518;2024-02-04T11:54:47;10.70;99.90
3925;DHT22;1977;52.274;10.518;2024-02-04T11:57:14;10.70;99.90
3925;DHT22;1977;52.274;10.518;2024-02-04T11:59:43;10.70;99.90
3925;DHT22;1977;52.274;10.518;2024-02-04T12:02:12;10.70;99.90
3925;DHT22;1977;52.274;10.518;2024-02-04T12:04:39;10.70;99.90
3925;DHT22;1977;52.274;10.518;2024-02-04T12:07:07;10.60;99.90
3925;DHT22;1977;52.274;10.518;2024-02-04T12:09:35;10.60;99.90
3925;DHT22;1977;52.274;10.518;2024-02-04T12:12:02;10.60;99.90
3925;DHT22;1977;52.274;10.518;2024-02-04T12:14:29;10.60;99.90
3925;DHT22;1977;52.274;10.518;2024-02-04T12:16:56;10.60;99.90
3925;DHT22;1977;52.274;10.518;2024-02-04T12:19:26;10.60;99.90
3925;DHT22;1977;52.274;10.518;2024-02-04T12:21:53;10.60;99.90
3925;DHT22;1977;52.274;10.518;2024-02-04T12:24:21;10.60;99.90
3925;DHT22;1977;52.274;10.518;2024-02-04T12:26:48;10.60;99.90
3925;DHT22;1977;52.274;10.518;2024-02-04T12:29:14;10.70;99.90
3925;DHT22;1977;52.274;10.518;2024-02-04T12:31:41;10.70;99.90
3925;DHT22;1977;52.274;10.518;2024-02-04T12:34:08;10.70;99.90
3925;DHT22;1977;52.274;10.518;2024-02-04T12:36:39;10.70;99.90
3925;DHT22;1977;52.274;10.518;2024-02-04T12:39:05;10.70;99.90
3925;DHT22;1977;52.274;10.518;2024-02-04T12:41:35;10.70;99.90
3925;DHT22;1977;52.274;10.518;2024-02-04T12:44:02;10.60;99.90
3925;DHT22;1977;52.274;10.518;2024-02-04T12:46:30;10.70;99.90
3925;DHT22;1977;52.274;10.518;2024-02-04T12:48:58;10.80;99.90
3925;DHT22;1977;52.274;10.518;2024-02-04T12:51:25;10.70;99.90
3925;DHT22;1977;52.274;10.518;2024-02-04T12:54:07;10.70;99.90
3925;DHT22;1977;52.274;10.518;2024-02-04T12:56:45;10.60;99.90
3925;DHT22;1977;52.274;10.518;2024-02-04T12:59:23;10.70;99.90
3925;DHT22;1977;52.274;10.518;2024-02-04T13:01:53;10.70;99.90
3925;DHT22;1977;52.274;10.518;2024-02-04T13:04:20;10.70;99.90
3925;DHT22;1977;52.274;10.518;2024-02-04T13:06:47;10.70;99.90
3925;DHT22;1977;52.274;10.518;2024-02-04T13:09:16;10.70;99.90
3925;DHT22;1977;52.274;10.518;2024-02-04T13:11:42;10.70;99.90
3925;DHT22;1977;52.274;10.518;2024-02-04T13:14:10;10.70;99.90
3925;DHT22;1977;52.274;10.518;2024-02-04T13:16:37;10.70;99.90
3925;DHT22;1977;52.274;10.518;2024-02-04T13:19:05;10.60;99.90
3925;DHT22;1977;52.274;10.518;2024-02-04T13:21:33;10.70;99.90
3925;DHT22;1977;52.274;10.518;2024-02-04T13:24:00;10.70;99.90
3925;DHT22;1977;52.274;10.518;2024-02-04T13:26:28;10.70;99.90
3925;DHT22;1977;52.274;10.518;2024-02-04T13:28:54;10.70;99.90
3925;DHT22;1977;52.274;10.518;2024-02-04T13:31:21;10.70;99.90
3925;DHT22;1977;52.274;10.518;2024-02-04T13:33:48;10.60;99.90
3925;DHT22;1977;52.274;10.518;2024-02-04T13:36:15;10.70;99.90
3925;DHT22;1977;52.274;10.518;2024-02-04T13:38:42;10.70;99.90
3925;DHT22;1977;52.274;10.518;2024-02-04T13:41:08;10.60;99.90
3925;DHT22;1977;52.274;10.518;2024-02-04T13:43:36;10.60;99.90
3925;DHT22;1977;52.274;10.518;2024-02-04T13:46:03;10.60;99.90
3925;DHT22;1977;52.274;10.518;2024-02-04T13:48:30;10.60;99.90
3925;DHT22;1977;52.274;10.518;2024-02-04T13:50:57;10.60;99.90
3925;DHT22;1977;52.274;10.518;2024-02-04T13:53:24;10.50;99.90
3925;DHT22;1977;52.274;10.518;2024-02-04T13:55:50;10.50;99.90
3925;DHT22;1977;52.274;10.518;2024-02-04T13:58:17;10.50;99.90
3925;DHT22;1977;52.274;10.518;2024-02-04T14:00:46;10.50;99.90
3925;DHT22;1977;52.274;10.518;2024-02-04T14:03:13;10.50;99.90
3925;DHT22;1977;52.274;10.518;2024-02-04T14:05:40;10.40;99.90
3925;DHT22;1977;52.274;10.518;2024-02-04T14:08:07;10.40;99.90
3925;DHT22;1977;52.274;10.518;2024-02-04T14:10:33;10.40;99.90
3925;DHT22;1977;52.274;10.518;2024-02-04T14:13:00;10.40;99.90
3925;DHT22;1977;52.274;10.518;2024-02-04T14:15:27;10.50;99.90
3925;DHT22;1977;52.274;10.518;2024-02-04T14:17:55;10.40;99.90
3925;DHT22;1977;52.274;10.518;2024-02-04T14:20:22;10.40;99.90
3925;DHT22;1977;52.274;10.518;2024-02-04T14:22:49;10.40;99.90
3925;DHT22;1977;52.274;10.518;2024-02-04T14:25:17;10.40;99.90
3925;DHT22;1977;52.274;10.518;2024-02-04T14:27:43;10.40;99.90
3925;DHT22;1977;52.274;10.518;2024-02-04T14:30:11;10.40;99.90
3925;DHT22;1977;52.274;10.518;2024-02-04T14:32:38;10.40;99.90
3925;DHT22;1977;52.274;10.518;2024-02-04T14:35:07;10.40;99.90
3925;DHT22;1977;52.274;10.518;2024-02-04T14:37:35;10.40;99.90
3925;DHT22;1977;52.274;10.518;2024-02-04T14:40:03;10.40;99.90
3925;DHT22;1977;52.274;10.518;2024-02-04T14:42:31;10.30;99.90
3925;DHT22;1977;52.274;10.518;2024-02-04T14:44:58;10.30;99.90
3925;DHT22;1977;52.274;10.518;2024-02-04T14:47:26;10.40;99.90
3925;DHT22;1977;52.274;10.518;2024-02-04T14:49:53;10.40;99.90
3925;DHT22;1977;52.274;10.518;2024-02-04T14:52:21;10.40;99.90
3925;DHT22;1977;52.274;10.518;2024-02-04T14:54:48;10.40;99.90
3925;DHT22;1977;52.274;10.518;2024-02-04T14:57:15;10.40;99.90
3925;DHT22;1977;52.274;10.518;2024-02-04T14:59:42;10.40;99.90
3925;DHT22;1977;52.274;10.518;2024-02-04T15:02:09;10.50;99.90
3925;DHT22;1977;52.274;10.518;2024-02-04T15:04:36;10.40;99.90
3925;DHT22;1977;52.274;10.518;2024-02-04T15:07:03;10.50;99.90
3925;DHT22;1977;52.274;10.518;2024-02-04T15:09:32;10.50;99.90
3925;DHT22;1977;52.274;10.518;2024-02-04T15:11:59;10.50;99.90
3925;DHT22;1977;52.274;10.518;2024-02-04T15:14:27;10.50;99.90
3925;DHT22;1977;52.274;10.518;2024-02-04T15:16:55;10.40;99.90
3925;DHT22;1977;52.274;10.518;2024-02-04T15:19:23;10.40;99.90
3925;DHT22;1977;52.274;10.518;2024-02-04T15:21:51;10.40;99.90
3925;DHT22;1977;52.274;10.518;2024-02-04T15:24:18;10.40;99.90
3925;DHT22;1977;52.274;10.518;2024-02-04T15:26:48;10.40;99.90
3925;DHT22;1977;52.274;10.518;2024-02-04T15:29:15;10.40;99.90
3925;DHT22;1977;52.274;10.518;2024-02-04T15:31:43;10.40;99.90
3925;DHT22;1977;52.274;10.518;2024-02-04T15:34:12;10.40;99.90
3925;DHT22;1977;52.274;10.518;2024-02-04T15:36:39;10.40;99.90
3925;DHT22;1977;52.274;10.518;2024-02-04T15:39:05;10.40;99.90
3925;DHT22;1977;52.274;10.518;2024-02-04T15:41:35;10.40;99.90
3925;DHT22;1977;52.274;10.518;2024-02-04T15:44:04;10.40;99.90
3925;DHT22;1977;52.274;10.518;2024-02-04T15:46:32;10.40;99.90
3925;DHT22;1977;52.274;10.518;2024-02-04T15:48:59;10.40;99.90
3925;DHT22;1977;52.274;10.518;2024-02-04T15:51:28;10.40;99.90
3925;DHT22;1977;52.274;10.518;2024-02-04T15:53:55;10.40;99.90
3925;DHT22;1977;52.274;10.518;2024-02-04T15:56:24;10.30;99.90
3925;DHT22;1977;52.274;10.518;2024-02-04T15:58:58;10.30;99.90